sensor_id;sensor_type;location;lat;lon;timestamp;pressure;altitude;pressure_sealevel;temperature;humidity
46448;BME280;32145;50.390;30.778;2023-08-20T00:01:36;100451.69;;;21.17;68.65
46448;BME280;32145;50.390;30.778;2023-08-20T00:04:35;100456.63;;;21.20;69.04
46448;BME280;32145;50.390;30.778;2023-08-20T00:07:34;100457.19;;;21.17;68.76
46448;BME280;32145;50.390;30.778;2023-08-20T00:10:31;100457.78;;;21.14;68.82
46448;BME280;32145;50.390;30.778;2023-08-20T00:13:27;100455.91;;;21.09;68.68
46448;BME280;32145;50.390;30.778;2023-08-20T00:16:22;100460.03;;;21.07;69.00
46448;BME280;32145;50.390;30.778;2023-08-20T00:19:16;100451.78;;;21.07;69.02
46448;BME280;32145;50.390;30.778;2023-08-20T00:22:11;100448.78;;;21.03;69.18
46448;BME280;32145;50.390;30.778;2023-08-20T00:25:07;100460.66;;;21.04;69.19
46448;BME280;32145;50.390;30.778;2023-08-20T00:28:02;100452.66;;;21.02;69.08
46448;BME280;32145;50.390;30.778;2023-08-20T00:30:57;100449.06;;;21.02;69.12
46448;BME280;32145;50.390;30.778;2023-08-20T00:33:51;100455.16;;;20.98;69.16
46448;BME280;32145;50.390;30.778;2023-08-20T00:36:45;100447.19;;;20.97;69.12
46448;BME280;32145;50.390;30.778;2023-08-20T00:39:40;100450.25;;;20.95;69.22
46448;BME280;32145;50.390;30.778;2023-08-20T00:42:36;100453.00;;;20.95;69.34
46448;BME280;32145;50.390;30.778;2023-08-20T00:45:31;100455.50;;;20.92;69.12
46448;BME280;32145;50.390;30.778;2023-08-20T00:48:25;100461.31;;;20.85;69.16
46448;BME280;32145;50.390;30.778;2023-08-20T00:51:19;100456.38;;;20.82;69.35
46448;BME280;32145;50.390;30.778;2023-08-20T00:54:14;100458.84;;;20.83;69.45
46448;BME280;32145;50.390;30.778;2023-08-20T00:57:08;100455.28;;;20.83;69.45
46448;BME280;32145;50.390;30.778;2023-08-20T01:00:06;100458.03;;;20.83;69.48
46448;BME280;32145;50.390;30.778;2023-08-20T01:03:00;100450.88;;;20.82;69.61
46448;BME280;32145;50.390;30.778;2023-08-20T01:06:12;100443.16;;;20.84;69.98
46448;BME280;32145;50.390;30.778;2023-08-20T01:09:19;100436.59;;;20.80;69.70
46448;BME280;32145;50.390;30.778;2023-08-20T01:12:16;100438.00;;;20.77;69.58
46448;BME280;32145;50.390;30.778;2023-08-20T01:15:11;100431.09;;;20.74;69.52
46448;BME280;32145;50.390;30.778;2023-08-20T01:18:06;100430.00;;;20.76;69.63
46448;BME280;32145;50.390;30.778;2023-08-20T01:21:03;100432.22;;;20.73;69.54
46448;BME280;32145;50.390;30.778;2023-08-20T01:24:08;100426.72;;;20.73;69.68
46448;BME280;32145;50.390;30.778;2023-08-20T01:27:23;100438.28;;;20.70;69.62
46448;BME280;32145;50.390;30.778;2023-08-20T01:30:22;100433.13;;;20.64;69.52
46448;BME280;32145;50.390;30.778;2023-08-20T01:33:18;100435.38;;;20.62;69.67
46448;BME280;32145;50.390;30.778;2023-08-20T01:36:13;100433.41;;;20.62;69.80
46448;BME280;32145;50.390;30.778;2023-08-20T01:39:07;100431.78;;;20.61;69.69
46448;BME280;32145;50.390;30.778;2023-08-20T01:45:55;100425.88;;;20.38;70.19
46448;BME280;32145;50.390;30.778;2023-08-20T01:48:49;100428.63;;;20.38;70.53
46448;BME280;32145;50.390;30.778;2023-08-20T01:51:43;100423.69;;;20.40;70.47
46448;BME280;32145;50.390;30.778;2023-08-20T01:54:38;100425.31;;;20.41;70.56
46448;BME280;32145;50.390;30.778;2023-08-20T01:57:32;100431.38;;;20.43;70.48
46448;BME280;32145;50.390;30.778;2023-08-20T02:00:26;100424.19;;;20.42;70.42
46448;BME280;32145;50.390;30.778;2023-08-20T02:03:24;100428.63;;;20.38;70.55
46448;BME280;32145;50.390;30.778;2023-08-20T02:06:20;100422.34;;;20.32;70.64
46448;BME280;32145;50.390;30.778;2023-08-20T02:09:16;100425.38;;;20.31;70.66
46448;BME280;32145;50.390;30.778;2023-08-20T02:12:13;100425.38;;;20.31;70.82
46448;BME280;32145;50.390;30.778;2023-08-20T02:15:09;100430.88;;;20.31;70.64
46448;BME280;32145;50.390;30.778;2023-08-20T02:18:06;100431.16;;;20.29;70.78
46448;BME280;32145;50.390;30.778;2023-08-20T02:21:04;100435.03;;;20.28;70.76
46448;BME280;32145;50.390;30.778;2023-08-20T02:24:00;100431.75;;;20.26;70.73
46448;BME280;32145;50.390;30.778;2023-08-20T02:26:56;100437.25;;;20.26;70.88
46448;BME280;32145;50.390;30.778;2023-08-20T02:29:53;100440.81;;;20.27;70.74
46448;BME280;32145;50.390;30.778;2023-08-20T02:32:49;100439.19;;;20.26;70.85
46448;BME280;32145;50.390;30.778;2023-08-20T02:35:45;100443.63;;;20.21;70.89
46448;BME280;32145;50.390;30.778;2023-08-20T02:38:44;100438.69;;;20.18;70.89
46448;BME280;32145;50.390;30.778;2023-08-20T02:41:41;100440.06;;;20.16;71.02
46448;BME280;32145;50.390;30.778;2023-08-20T02:44:37;100435.13;;;20.13;71.29
46448;BME280;32145;50.390;30.778;2023-08-20T02:47:33;100439.56;;;20.14;71.36
46448;BME280;32145;50.390;30.778;2023-08-20T02:50:30;100437.59;;;20.14;71.38
46448;BME280;32145;50.390;30.778;2023-08-20T02:53:26;100437.59;;;20.14;71.38
46448;BME280;32145;50.390;30.778;2023-08-20T02:56:24;100431.28;;;20.14;71.34
46448;BME280;32145;50.390;30.778;2023-08-20T02:59:20;100433.72;;;20.15;71.39
46448;BME280;32145;50.390;30.778;2023-08-20T03:02:17;100431.53;;;20.17;71.53
46448;BME280;32145;50.390;30.778;2023-08-20T03:05:13;100427.44;;;20.15;71.34
46448;BME280;32145;50.390;30.778;2023-08-20T03:08:09;100429.34;;;20.14;71.24
46448;BME280;32145;50.390;30.778;2023-08-20T03:11:06;100434.00;;;20.19;71.40
46448;BME280;32145;50.390;30.778;2023-08-20T03:14:04;100441.97;;;20.20;71.25
46448;BME280;32145;50.390;30.778;2023-08-20T03:17:00;100435.34;;;20.21;71.00
46448;BME280;32145;50.390;30.778;2023-08-20T03:19:57;100436.72;;;20.24;71.04
46448;BME280;32145;50.390;30.778;2023-08-20T03:22:54;100436.97;;;20.28;71.05
46448;BME280;32145;50.390;30.778;2023-08-20T03:25:50;100437.22;;;20.31;71.08
46448;BME280;32145;50.390;30.778;2023-08-20T03:28:46;100436.09;;;20.38;70.96
46448;BME280;32145;50.390;30.778;2023-08-20T03:31:44;100441.28;;;20.44;70.81
46448;BME280;32145;50.390;30.778;2023-08-20T03:34:40;100429.91;;;20.51;70.70
46448;BME280;32145;50.390;30.778;2023-08-20T03:37:37;100432.28;;;20.63;70.70
46448;BME280;32145;50.390;30.778;2023-08-20T03:40:33;100428.34;;;20.74;70.39
46448;BME280;32145;50.390;30.778;2023-08-20T03:43:30;100435.75;;;20.79;70.21
46448;BME280;32145;50.390;30.778;2023-08-20T03:46:26;100429.63;;;20.88;70.13
46448;BME280;32145;50.390;30.778;2023-08-20T03:49:24;100435.88;;;20.98;70.10
46448;BME280;32145;50.390;30.778;2023-08-20T03:52:20;100426.38;;;21.15;69.73
46448;BME280;32145;50.390;30.778;2023-08-20T03:55:16;100421.91;;;21.44;69.32
46448;BME280;32145;50.390;30.778;2023-08-20T03:58:13;100420.84;;;21.88;69.18
46448;BME280;32145;50.390;30.778;2023-08-20T04:01:09;100422.00;;;22.40;67.96
46448;BME280;32145;50.390;30.778;2023-08-20T04:04:04;100424.06;;;22.68;67.00
46448;BME280;32145;50.390;30.778;2023-08-20T04:06:59;100419.56;;;23.05;66.08
46448;BME280;32145;50.390;30.778;2023-08-20T04:09:53;100417.25;;;23.40;65.25
46448;BME280;32145;50.390;30.778;2023-08-20T04:12:48;100416.00;;;23.47;64.62
46448;BME280;32145;50.390;30.778;2023-08-20T04:15:42;100416.00;;;23.33;64.82
46448;BME280;32145;50.390;30.778;2023-08-20T04:18:36;100417.00;;;23.23;64.96
46448;BME280;32145;50.390;30.778;2023-08-20T04:21:31;100415.19;;;23.18;65.27
46448;BME280;32145;50.390;30.778;2023-08-20T04:24:26;100415.19;;;23.18;65.51
46448;BME280;32145;50.390;30.778;2023-08-20T04:27:20;100406.66;;;23.14;65.46
46448;BME280;32145;50.390;30.778;2023-08-20T04:30:15;100408.50;;;23.19;65.61
46448;BME280;32145;50.390;30.778;2023-08-20T04:33:09;100411.88;;;23.30;65.75
46448;BME280;32145;50.390;30.778;2023-08-20T04:36:04;100413.56;;;23.45;65.48
46448;BME280;32145;50.390;30.778;2023-08-20T04:38:58;100407.22;;;23.59;65.49
46448;BME280;32145;50.390;30.778;2023-08-20T04:41:54;100411.09;;;23.72;65.49
46448;BME280;32145;50.390;30.778;2023-08-20T04:44:48;100410.06;;;23.81;65.38
46448;BME280;32145;50.390;30.778;2023-08-20T04:47:45;100404.25;;;23.92;65.38
46448;BME280;32145;50.390;30.778;2023-08-20T04:50:41;100405.06;;;24.06;65.09
46448;BME280;32145;50.390;30.778;2023-08-20T04:53:38;100400.34;;;24.21;64.69
46448;BME280;32145;50.390;30.778;2023-08-20T04:56:34;100400.91;;;24.32;64.34
46448;BME280;32145;50.390;30.778;2023-08-20T04:59:32;100410.28;;;24.45;64.15
46448;BME280;32145;50.390;30.778;2023-08-20T05:02:28;100409.22;;;24.55;63.62
46448;BME280;32145;50.390;30.778;2023-08-20T05:05:24;100402.06;;;24.63;63.20
46448;BME280;32145;50.390;30.778;2023-08-20T05:08:20;100404.25;;;24.75;62.93
46448;BME280;32145;50.390;30.778;2023-08-20T05:11:17;100403.72;;;24.87;62.77
46448;BME280;32145;50.390;30.778;2023-08-20T05:14:13;100403.44;;;24.97;62.44
46448;BME280;32145;50.390;30.778;2023-08-20T05:17:10;100410.00;;;25.10;61.96
46448;BME280;32145;50.390;30.778;2023-08-20T05:20:07;100407.78;;;25.21;61.34
46448;BME280;32145;50.390;30.778;2023-08-20T05:23:03;100406.69;;;25.31;60.82
46448;BME280;32145;50.390;30.778;2023-08-20T05:25:58;100400.81;;;25.41;60.89
46448;BME280;32145;50.390;30.778;2023-08-20T05:28:54;100406.88;;;25.52;60.31
46448;BME280;32145;50.390;30.778;2023-08-20T05:31:51;100401.06;;;25.63;59.77
46448;BME280;32145;50.390;30.778;2023-08-20T05:34:46;100410.41;;;25.76;59.73
46448;BME280;32145;50.390;30.778;2023-08-20T05:37:40;100412.22;;;25.89;59.48
46448;BME280;32145;50.390;30.778;2023-08-20T05:40:37;100403.59;;;25.99;59.07
46448;BME280;32145;50.390;30.778;2023-08-20T05:43:33;100399.03;;;26.12;59.04
46448;BME280;32145;50.390;30.778;2023-08-20T05:46:29;100402.44;;;26.27;58.79
46448;BME280;32145;50.390;30.778;2023-08-20T05:49:26;100396.06;;;26.44;58.75
46448;BME280;32145;50.390;30.778;2023-08-20T05:52:24;100393.59;;;26.60;58.18
46448;BME280;32145;50.390;30.778;2023-08-20T05:55:20;100382.75;;;26.76;57.62
46448;BME280;32145;50.390;30.778;2023-08-20T05:58:17;100383.88;;;26.84;57.15
46448;BME280;32145;50.390;30.778;2023-08-20T06:01:13;100380.09;;;26.98;56.81
46448;BME280;32145;50.390;30.778;2023-08-20T06:04:09;100386.88;;;27.18;55.71
46448;BME280;32145;50.390;30.778;2023-08-20T06:07:05;100389.44;;;27.32;55.07
46448;BME280;32145;50.390;30.778;2023-08-20T06:10:04;100385.13;;;27.44;54.98
46448;BME280;32145;50.390;30.778;2023-08-20T06:13:00;100382.25;;;27.52;54.95
46448;BME280;32145;50.390;30.778;2023-08-20T06:15:57;100386.66;;;27.62;54.52
46448;BME280;32145;50.390;30.778;2023-08-20T06:18:53;100380.03;;;27.76;53.68
46448;BME280;32145;50.390;30.778;2023-08-20T06:21:49;100379.53;;;27.74;52.54
46448;BME280;32145;50.390;30.778;2023-08-20T06:24:45;100382.31;;;27.74;52.18
46448;BME280;32145;50.390;30.778;2023-08-20T06:27:43;100393.63;;;27.77;52.49
46448;BME280;32145;50.390;30.778;2023-08-20T06:30:40;100384.78;;;27.97;52.40
46448;BME280;32145;50.390;30.778;2023-08-20T06:33:36;100373.63;;;28.18;52.53
46448;BME280;32145;50.390;30.778;2023-08-20T06:36:32;100380.81;;;28.40;51.93
46448;BME280;32145;50.390;30.778;2023-08-20T06:39:29;100379.69;;;28.54;51.28
46448;BME280;32145;50.390;30.778;2023-08-20T06:42:25;100382.03;;;28.64;51.34
46448;BME280;32145;50.390;30.778;2023-08-20T06:45:22;100388.09;;;28.66;50.82
46448;BME280;32145;50.390;30.778;2023-08-20T06:48:19;100383.47;;;28.71;50.58
46448;BME280;32145;50.390;30.778;2023-08-20T06:51:18;100388.78;;;28.63;49.40
46448;BME280;32145;50.390;30.778;2023-08-20T06:54:15;100385.84;;;28.60;49.64
46448;BME280;32145;50.390;30.778;2023-08-20T06:57:11;100383.31;;;28.67;49.16
46448;BME280;32145;50.390;30.778;2023-08-20T07:00:07;100381.38;;;28.80;49.47
46448;BME280;32145;50.390;30.778;2023-08-20T07:03:02;100378.84;;;28.87;48.55
46448;BME280;32145;50.390;30.778;2023-08-20T07:05:57;100380.72;;;28.96;48.82
46448;BME280;32145;50.390;30.778;2023-08-20T07:08:51;100384.69;;;28.94;48.42
46448;BME280;32145;50.390;30.778;2023-08-20T07:11:46;100376.53;;;29.02;47.68
46448;BME280;32145;50.390;30.778;2023-08-20T07:14:40;100376.78;;;29.09;47.09
46448;BME280;32145;50.390;30.778;2023-08-20T07:17:36;100382.34;;;29.09;46.07
46448;BME280;32145;50.390;30.778;2023-08-20T07:20:34;100384.69;;;29.07;45.48
46448;BME280;32145;50.390;30.778;2023-08-20T07:23:30;100377.47;;;29.06;45.59
46448;BME280;32145;50.390;30.778;2023-08-20T07:26:27;100375.63;;;29.23;45.66
46448;BME280;32145;50.390;30.778;2023-08-20T07:29:23;100379.66;;;29.50;45.74
46448;BME280;32145;50.390;30.778;2023-08-20T07:32:19;100378.06;;;29.62;45.34
46448;BME280;32145;50.390;30.778;2023-08-20T07:35:16;100371.16;;;29.71;44.91
46448;BME280;32145;50.390;30.778;2023-08-20T07:38:13;100376.50;;;29.77;44.64
46448;BME280;32145;50.390;30.778;2023-08-20T07:41:07;100369.28;;;29.76;44.77
46448;BME280;32145;50.390;30.778;2023-08-20T07:44:02;100378.50;;;29.76;44.46
46448;BME280;32145;50.390;30.778;2023-08-20T07:46:57;100377.00;;;29.66;43.54
46448;BME280;32145;50.390;30.778;2023-08-20T07:49:51;100376.28;;;29.69;43.96
46448;BME280;32145;50.390;30.778;2023-08-20T07:52:45;100368.13;;;29.77;43.63
46448;BME280;32145;50.390;30.778;2023-08-20T07:55:41;100371.66;;;30.02;43.46
46448;BME280;32145;50.390;30.778;2023-08-20T07:58:35;100370.34;;;30.12;42.81
46448;BME280;32145;50.390;30.778;2023-08-20T08:01:29;100362.81;;;30.00;42.77
46448;BME280;32145;50.390;30.778;2023-08-20T08:04:25;100366.03;;;29.74;43.53
46448;BME280;32145;50.390;30.778;2023-08-20T08:07:22;100365.97;;;29.57;43.89
46448;BME280;32145;50.390;30.778;2023-08-20T08:10:16;100358.03;;;29.47;43.92
46448;BME280;32145;50.390;30.778;2023-08-20T08:13:12;100358.63;;;29.40;43.93
46448;BME280;32145;50.390;30.778;2023-08-20T08:16:07;100361.19;;;29.33;44.35
46448;BME280;32145;50.390;30.778;2023-08-20T08:19:01;100360.72;;;29.31;44.66
46448;BME280;32145;50.390;30.778;2023-08-20T08:21:56;100359.13;;;29.30;45.30
46448;BME280;32145;50.390;30.778;2023-08-20T08:24:50;100359.13;;;29.30;45.90
46448;BME280;32145;50.390;30.778;2023-08-20T08:27:46;100351.88;;;29.29;45.66
46448;BME280;32145;50.390;30.778;2023-08-20T08:30:44;100356.31;;;29.30;45.65
46448;BME280;32145;50.390;30.778;2023-08-20T08:33:38;100350.25;;;29.28;45.53
46448;BME280;32145;50.390;30.778;2023-08-20T08:36:32;100355.38;;;29.26;45.12
46448;BME280;32145;50.390;30.778;2023-08-20T08:39:27;100352.72;;;29.29;45.43
46448;BME280;32145;50.390;30.778;2023-08-20T08:42:22;100352.94;;;29.37;46.43
46448;BME280;32145;50.390;30.778;2023-08-20T08:45:18;100356.53;;;29.37;47.01
46448;BME280;32145;50.390;30.778;2023-08-20T08:48:14;100352.09;;;29.36;47.26
46448;BME280;32145;50.390;30.778;2023-08-20T08:51:09;100346.53;;;29.36;47.39
46448;BME280;32145;50.390;30.778;2023-08-20T08:54:04;100348.63;;;29.39;47.24
46448;BME280;32145;50.390;30.778;2023-08-20T08:56:58;100355.13;;;29.43;46.76
46448;BME280;32145;50.390;30.778;2023-08-20T08:59:53;100358.03;;;29.47;46.48
46448;BME280;32145;50.390;30.778;2023-08-20T09:02:47;100352.44;;;29.59;46.36
46448;BME280;32145;50.390;30.778;2023-08-20T09:05:50;100352.69;;;29.95;45.52
46448;BME280;32145;50.390;30.778;2023-08-20T09:08:44;100349.94;;;30.40;45.06
46448;BME280;32145;50.390;30.778;2023-08-20T09:11:39;100352.47;;;30.90;44.21
46448;BME280;32145;50.390;30.778;2023-08-20T09:14:33;100356.03;;;31.39;43.10
46448;BME280;32145;50.390;30.778;2023-08-20T09:17:28;100359.91;;;31.70;42.93
46448;BME280;32145;50.390;30.778;2023-08-20T09:20:34;100354.06;;;31.95;42.06
46448;BME280;32145;50.390;30.778;2023-08-20T09:23:29;100351.91;;;32.08;41.59
46448;BME280;32145;50.390;30.778;2023-08-20T09:26:23;100346.66;;;31.87;41.35
46448;BME280;32145;50.390;30.778;2023-08-20T09:29:17;100348.75;;;31.54;41.26
46448;BME280;32145;50.390;30.778;2023-08-20T09:32:16;100348.09;;;31.41;41.32
46448;BME280;32145;50.390;30.778;2023-08-20T09:35:17;100343.69;;;31.60;40.64
46448;BME280;32145;50.390;30.778;2023-08-20T09:38:14;100342.53;;;31.81;40.42
46448;BME280;32145;50.390;30.778;2023-08-20T09:41:11;100344.50;;;31.96;39.77
46448;BME280;32145;50.390;30.778;2023-08-20T09:44:06;100341.16;;;32.10;39.44
46448;BME280;32145;50.390;30.778;2023-08-20T09:47:03;100341.50;;;32.28;38.84
46448;BME280;32145;50.390;30.778;2023-08-20T09:49:57;100342.94;;;32.42;38.26
46448;BME280;32145;50.390;30.778;2023-08-20T09:52:57;100342.19;;;32.45;37.31
46448;BME280;32145;50.390;30.778;2023-08-20T09:55:58;100334.00;;;32.56;37.04
46448;BME280;32145;50.390;30.778;2023-08-20T09:58:58;100339.38;;;32.65;36.83
46448;BME280;32145;50.390;30.778;2023-08-20T10:01:52;100328.94;;;32.65;36.58
46448;BME280;32145;50.390;30.778;2023-08-20T10:04:47;100326.25;;;32.73;37.27
46448;BME280;32145;50.390;30.778;2023-08-20T10:07:43;100316.16;;;32.68;38.14
46448;BME280;32145;50.390;30.778;2023-08-20T10:10:37;100322.53;;;32.65;38.35
46448;BME280;32145;50.390;30.778;2023-08-20T10:13:32;100318.16;;;32.68;38.58
46448;BME280;32145;50.390;30.778;2023-08-20T10:16:28;100328.84;;;32.38;37.76
46448;BME280;32145;50.390;30.778;2023-08-20T10:19:23;100330.31;;;32.09;38.56
46448;BME280;32145;50.390;30.778;2023-08-20T10:22:20;100316.19;;;31.85;39.35
46448;BME280;32145;50.390;30.778;2023-08-20T10:25:23;100310.69;;;31.69;39.54
46448;BME280;32145;50.390;30.778;2023-08-20T10:28:21;100309.00;;;31.48;39.88
46448;BME280;32145;50.390;30.778;2023-08-20T10:31:19;100311.03;;;31.32;39.92
46448;BME280;32145;50.390;30.778;2023-08-20T10:34:31;100310.19;;;31.11;39.74
46448;BME280;32145;50.390;30.778;2023-08-20T10:37:28;100300.63;;;30.96;40.15
46448;BME280;32145;50.390;30.778;2023-08-20T10:40:52;100302.63;;;30.96;40.38
46448;BME280;32145;50.390;30.778;2023-08-20T10:43:47;100303.34;;;31.09;40.81
46448;BME280;32145;50.390;30.778;2023-08-20T10:46:50;100302.03;;;31.22;39.81
46448;BME280;32145;50.390;30.778;2023-08-20T10:49:50;100288.69;;;31.51;38.98
46448;BME280;32145;50.390;30.778;2023-08-20T10:52:47;100292.47;;;31.79;39.11
46448;BME280;32145;50.390;30.778;2023-08-20T10:55:48;100291.06;;;32.09;39.04
46448;BME280;32145;50.390;30.778;2023-08-20T10:58:45;100289.97;;;32.37;38.15
46448;BME280;32145;50.390;30.778;2023-08-20T11:01:40;100277.38;;;32.50;37.60
46448;BME280;32145;50.390;30.778;2023-08-20T11:04:36;100276.75;;;32.61;38.04
46448;BME280;32145;50.390;30.778;2023-08-20T11:07:33;100275.69;;;32.69;37.13
46448;BME280;32145;50.390;30.778;2023-08-20T11:10:28;100270.81;;;32.66;37.01
46448;BME280;32145;50.390;30.778;2023-08-20T11:13:25;100273.13;;;32.60;37.16
46448;BME280;32145;50.390;30.778;2023-08-20T11:16:19;100260.38;;;32.43;37.14
46448;BME280;32145;50.390;30.778;2023-08-20T11:19:14;100264.25;;;32.35;37.19
46448;BME280;32145;50.390;30.778;2023-08-20T11:22:09;100259.59;;;32.19;36.87
46448;BME280;32145;50.390;30.778;2023-08-20T11:25:06;100251.81;;;32.09;37.24
46448;BME280;32145;50.390;30.778;2023-08-20T11:28:00;100250.72;;;31.94;37.11
46448;BME280;32145;50.390;30.778;2023-08-20T11:30:55;100249.59;;;31.79;37.25
46448;BME280;32145;50.390;30.778;2023-08-20T11:33:49;100249.31;;;31.64;37.79
46448;BME280;32145;50.390;30.778;2023-08-20T11:36:43;100234.25;;;31.72;38.48
46448;BME280;32145;50.390;30.778;2023-08-20T11:39:38;100225.06;;;31.92;37.76
46448;BME280;32145;50.390;30.778;2023-08-20T11:42:34;100225.63;;;32.24;37.15
46448;BME280;32145;50.390;30.778;2023-08-20T11:45:28;100217.88;;;32.64;36.79
46448;BME280;32145;50.390;30.778;2023-08-20T11:48:22;100212.75;;;32.70;35.90
46448;BME280;32145;50.390;30.778;2023-08-20T11:51:18;100212.47;;;32.52;35.04
46448;BME280;32145;50.390;30.778;2023-08-20T11:54:16;100208.56;;;32.57;35.83
46448;BME280;32145;50.390;30.778;2023-08-20T11:57:10;100209.09;;;32.66;36.18
46448;BME280;32145;50.390;30.778;2023-08-20T12:00:07;100213.09;;;32.92;35.72
46448;BME280;32145;50.390;30.778;2023-08-20T12:03:01;100222.75;;;32.95;34.78
46448;BME280;32145;50.390;30.778;2023-08-20T12:05:58;100201.63;;;32.77;34.86
46448;BME280;32145;50.390;30.778;2023-08-20T12:08:54;100202.25;;;32.94;35.01
46448;BME280;32145;50.390;30.778;2023-08-20T12:11:51;100194.00;;;33.05;34.39
46448;BME280;32145;50.390;30.778;2023-08-20T12:14:48;100186.91;;;33.15;34.92
46448;BME280;32145;50.390;30.778;2023-08-20T12:17:55;100185.97;;;33.03;34.85
46448;BME280;32145;50.390;30.778;2023-08-20T12:20:51;100186.84;;;32.81;35.32
46448;BME280;32145;50.390;30.778;2023-08-20T12:23:48;100173.25;;;32.56;35.63
46448;BME280;32145;50.390;30.778;2023-08-20T12:26:44;100180.25;;;32.42;35.81
46448;BME280;32145;50.390;30.778;2023-08-20T12:29:40;100178.06;;;32.55;35.51
46448;BME280;32145;50.390;30.778;2023-08-20T12:32:37;100177.84;;;32.68;35.40
46448;BME280;32145;50.390;30.778;2023-08-20T12:35:35;100167.97;;;32.77;35.68
46448;BME280;32145;50.390;30.778;2023-08-20T12:38:31;100162.63;;;32.99;35.11
46448;BME280;32145;50.390;30.778;2023-08-20T12:41:28;100158.84;;;33.15;34.90
46448;BME280;32145;50.390;30.778;2023-08-20T12:44:24;100158.41;;;33.47;34.54
46448;BME280;32145;50.390;30.778;2023-08-20T12:47:14;100154.72;;;33.74;33.59
46448;BME280;32145;50.390;30.778;2023-08-20T12:49:58;100158.66;;;33.69;34.63
46448;BME280;32145;50.390;30.778;2023-08-20T12:52:56;100163.31;;;33.54;35.83
46448;BME280;32145;50.390;30.778;2023-08-20T12:55:40;100156.97;;;33.26;36.55
46448;BME280;32145;50.390;30.778;2023-08-20T12:58:37;100160.38;;;33.09;38.82
46448;BME280;32145;50.390;30.778;2023-08-20T13:01:28;100160.88;;;32.87;40.06
46448;BME280;32145;50.390;30.778;2023-08-20T13:04:22;100160.66;;;32.73;39.73
46448;BME280;32145;50.390;30.778;2023-08-20T13:07:17;100155.63;;;32.86;39.33
46448;BME280;32145;50.390;30.778;2023-08-20T13:10:03;100151.50;;;33.07;37.69
46448;BME280;32145;50.390;30.778;2023-08-20T13:12:49;100143.47;;;33.05;37.27
46448;BME280;32145;50.390;30.778;2023-08-20T13:15:34;100142.47;;;32.90;36.32
46448;BME280;32145;50.390;30.778;2023-08-20T13:18:19;100143.91;;;32.76;37.13
46448;BME280;32145;50.390;30.778;2023-08-20T13:21:03;100140.13;;;32.65;36.94
46448;BME280;32145;50.390;30.778;2023-08-20T13:23:59;100135.13;;;32.82;36.61
46448;BME280;32145;50.390;30.778;2023-08-20T13:26:57;100127.88;;;33.08;36.15
46448;BME280;32145;50.390;30.778;2023-08-20T13:29:53;100120.53;;;33.34;35.01
46448;BME280;32145;50.390;30.778;2023-08-20T13:32:37;100115.16;;;33.55;35.08
46448;BME280;32145;50.390;30.778;2023-08-20T13:35:32;100117.97;;;33.55;34.36
46448;BME280;32145;50.390;30.778;2023-08-20T13:38:15;100114.28;;;33.51;34.35
46448;BME280;32145;50.390;30.778;2023-08-20T13:41:06;100115.22;;;33.59;34.02
46448;BME280;32145;50.390;30.778;2023-08-20T13:43:51;100124.66;;;33.81;33.79
46448;BME280;32145;50.390;30.778;2023-08-20T13:46:48;100110.28;;;33.90;34.08
46448;BME280;32145;50.390;30.778;2023-08-20T13:49:44;100111.56;;;34.00;33.76
46448;BME280;32145;50.390;30.778;2023-08-20T13:52:40;100112.75;;;33.99;33.44
46448;BME280;32145;50.390;30.778;2023-08-20T13:55:37;100115.00;;;33.83;33.44
46448;BME280;32145;50.390;30.778;2023-08-20T13:58:33;100112.16;;;33.75;33.42
46448;BME280;32145;50.390;30.778;2023-08-20T14:01:31;100113.03;;;33.87;33.58
46448;BME280;32145;50.390;30.778;2023-08-20T14:04:27;100109.53;;;34.01;32.92
46448;BME280;32145;50.390;30.778;2023-08-20T14:07:24;100104.28;;;33.96;31.59
46448;BME280;32145;50.390;30.778;2023-08-20T14:10:20;100105.03;;;33.85;31.76
46448;BME280;32145;50.390;30.778;2023-08-20T14:13:16;100097.75;;;33.84;31.96
46448;BME280;32145;50.390;30.778;2023-08-20T14:16:11;100100.16;;;33.82;31.75
46448;BME280;32145;50.390;30.778;2023-08-20T14:19:06;100095.63;;;33.70;31.61
46448;BME280;32145;50.390;30.778;2023-08-20T14:22:01;100092.34;;;33.61;31.82
46448;BME280;32145;50.390;30.778;2023-08-20T14:24:55;100086.25;;;33.55;32.48
46448;BME280;32145;50.390;30.778;2023-08-20T14:27:52;100091.25;;;33.35;32.23
46448;BME280;32145;50.390;30.778;2023-08-20T14:30:48;100088.16;;;33.09;33.22
46448;BME280;32145;50.390;30.778;2023-08-20T14:33:45;100085.34;;;33.09;33.41
46448;BME280;32145;50.390;30.778;2023-08-20T14:36:42;100089.56;;;33.26;32.96
46448;BME280;32145;50.390;30.778;2023-08-20T14:39:38;100085.31;;;33.40;33.11
46448;BME280;32145;50.390;30.778;2023-08-20T14:42:34;100078.19;;;33.53;32.50
46448;BME280;32145;50.390;30.778;2023-08-20T14:45:31;100077.00;;;33.54;32.63
46448;BME280;32145;50.390;30.778;2023-08-20T14:48:27;100074.06;;;33.40;32.87
46448;BME280;32145;50.390;30.778;2023-08-20T14:51:22;100077.91;;;33.24;33.58
46448;BME280;32145;50.390;30.778;2023-08-20T14:54:17;100075.53;;;33.26;33.78
46448;BME280;32145;50.390;30.778;2023-08-20T14:57:12;100069.13;;;33.26;33.33
46448;BME280;32145;50.390;30.778;2023-08-20T15:00:07;100067.72;;;33.09;33.34
46448;BME280;32145;50.390;30.778;2023-08-20T15:03:01;100066.69;;;32.94;34.24
46448;BME280;32145;50.390;30.778;2023-08-20T15:05:56;100064.50;;;32.76;34.61
46448;BME280;32145;50.390;30.778;2023-08-20T15:08:52;100064.28;;;32.58;35.32
46448;BME280;32145;50.390;30.778;2023-08-20T15:11:50;100060.81;;;32.41;36.06